Time;durP1;ratioP1;P1;durP2;ratioP2;P2;SDS_P1;SDS_P2;PMS_P1;PMS_P2;Temp;Humidity;BMP_temperature;BMP_pressure;BME280_temperature;BME280_humidity;BME280_pressure;Samples;Min_cycle;Max_cycle;Signal;HPM_P1;HPM_P2
2022/12/01 00:02:20;;;;;;;16.83;8.40;;;7.40;99.90;;;;;;5030425;28;20233;-91
2022/12/01 00:04:47;;;;;;;16.67;7.60;;;7.40;99.90;;;;;;5031729;28;20233;-92
2022/12/01 00:07:13;;;;;;;17.27;9.60;;;7.40;99.90;;;;;;5057860;28;20189;-88
2022/12/01 00:12:23;;;;;;;20.77;10.47;;;7.40;99.90;;;;;;5058637;28;20229;-91
2022/12/01 00:14:53;;;;;;;25.90;12.53;;;7.50;99.90;;;;;;5040823;28;20575;-92
2022/12/01 00:17:20;;;;;;;11.63;10.30;;;7.40;99.90;;;;;;5057545;28;20225;-90
2022/12/01 00:19:46;;;;;;;18.07;9.23;;;7.40;99.90;;;;;;5058436;28;20838;-91
2022/12/01 00:22:12;;;;;;;16.47;9.03;;;7.40;99.90;;;;;;5055012;28;20717;-92
2022/12/01 00:24:38;;;;;;;11.87;8.97;;;7.30;99.90;;;;;;5054351;28;20691;-91
2022/12/01 00:27:04;;;;;;;11.73;7.97;;;7.20;99.90;;;;;;5031978;28;20217;-91
2022/12/01 00:29:29;;;;;;;15.17;9.90;;;7.20;99.90;;;;;;5030146;28;20702;-91
2022/12/01 00:31:55;;;;;;;14.70;9.77;;;7.10;99.90;;;;;;5050429;28;20253;-91
2022/12/01 00:34:23;;;;;;;15.43;8.23;;;7.10;99.90;;;;;;5021722;28;20200;-90
2022/12/01 00:36:49;;;;;;;13.63;9.10;;;7.00;99.90;;;;;;5058054;28;20186;-91
2022/12/01 00:39:15;;;;;;;17.40;9.67;;;7.00;99.90;;;;;;5058698;28;20233;-92
2022/12/01 00:41:40;;;;;;;18.33;9.20;;;7.00;99.90;;;;;;5038871;28;20228;-91
2022/12/01 00:44:06;;;;;;;17.77;9.87;;;7.00;99.90;;;;;;5035512;28;20225;-91
2022/12/01 00:46:32;;;;;;;10.17;7.53;;;7.00;99.90;;;;;;5047010;28;20217;-91
2022/12/01 00:48:58;;;;;;;10.10;7.90;;;7.00;99.90;;;;;;5057171;28;20274;-90
2022/12/01 00:51:23;;;;;;;13.80;7.93;;;7.00;99.90;;;;;;5039340;28;20322;-91
2022/12/01 00:53:49;;;;;;;13.43;10.10;;;7.00;99.90;;;;;;5063808;28;20336;-91
2022/12/01 00:56:15;;;;;;;12.67;6.70;;;7.00;99.90;;;;;;5059351;28;20225;-91
2022/12/01 00:58:41;;;;;;;11.67;10.53;;;7.00;99.90;;;;;;5055011;28;20305;-91
2022/12/01 01:01:06;;;;;;;15.50;8.30;;;7.00;99.90;;;;;;5057459;28;20639;-91
2022/12/01 01:03:33;;;;;;;28.87;8.53;;;7.00;99.90;;;;;;5055211;28;20213;-91
2022/12/01 01:06:08;;;;;;;18.53;11.57;;;7.00;99.90;;;;;;5057459;28;20287;-92
2022/12/01 01:08:34;;;;;;;13.50;8.33;;;6.90;99.90;;;;;;5037520;28;20217;-91
2022/12/01 01:11:00;;;;;;;21.10;12.80;;;6.90;99.90;;;;;;5034212;28;21166;-91
2022/12/01 01:13:26;;;;;;;14.73;8.87;;;6.90;99.90;;;;;;5029297;28;20221;-91
2022/12/01 01:16:07;;;;;;;8.43;7.57;;;6.90;99.90;;;;;;5046541;28;20281;-92
2022/12/01 01:18:33;;;;;;;12.10;8.90;;;6.80;99.90;;;;;;5046352;28;20688;-90
2022/12/01 01:21:02;;;;;;;15.77;8.97;;;6.80;99.90;;;;;;5028966;28;20221;-91
2022/12/01 01:23:28;;;;;;;12.40;7.80;;;6.80;99.90;;;;;;5053378;28;20221;-91
2022/12/01 01:26:00;;;;;;;10.07;9.10;;;6.70;99.90;;;;;;5021747;28;20236;-92
2022/12/01 01:28:26;;;;;;;17.43;10.43;;;6.80;99.90;;;;;;5056929;28;20243;-90
2022/12/01 01:30:52;;;;;;;14.73;9.63;;;6.80;99.90;;;;;;5053885;28;20221;-90
2022/12/01 01:33:17;;;;;;;17.53;11.33;;;6.80;99.90;;;;;;5039645;28;20300;-91
2022/12/01 01:35:43;;;;;;;9.63;7.13;;;6.90;99.90;;;;;;5037882;28;20240;-90
2022/12/01 01:38:09;;;;;;;13.93;7.60;;;6.90;99.90;;;;;;5054674;28;20228;-91
2022/12/01 01:40:44;;;;;;;17.67;8.60;;;6.90;99.90;;;;;;5016793;28;20285;-91
2022/12/01 01:43:17;;;;;;;9.57;6.83;;;6.90;99.90;;;;;;5026099;28;20336;-91
2022/12/01 01:45:43;;;;;;;12.33;7.50;;;6.90;99.90;;;;;;5049170;28;20178;-91
2022/12/01 01:48:11;;;;;;;13.33;8.47;;;6.90;99.90;;;;;;5049406;28;20213;-91
2022/12/01 01:50:38;;;;;;;14.43;7.83;;;6.90;99.90;;;;;;5049626;28;20237;-91
2022/12/01 01:53:11;;;;;;;16.33;8.57;;;6.90;99.90;;;;;;5049861;28;20327;-91
2022/12/01 01:55:37;;;;;;;10.13;8.93;;;6.90;99.90;;;;;;5050567;28;20228;-90
2022/12/01 01:58:08;;;;;;;18.07;7.87;;;6.90;99.90;;;;;;5050271;28;20213;-91
2022/12/01 02:00:34;;;;;;;13.53;6.97;;;6.90;99.90;;;;;;5030346;28;20222;-91
2022/12/01 02:03:01;;;;;;;15.87;8.33;;;7.00;99.90;;;;;;5045308;28;20229;-91
2022/12/01 02:05:31;;;;;;;15.17;10.17;;;7.00;99.90;;;;;;5032596;28;20221;-91
2022/12/01 02:07:58;;;;;;;15.03;9.33;;;7.00;99.90;;;;;;5049246;28;20226;-91
2022/12/01 02:10:49;;;;;;;13.20;7.90;;;7.00;99.90;;;;;;5049910;28;20216;-90
2022/12/01 02:13:27;;;;;;;16.17;10.17;;;7.00;99.90;;;;;;5060342;28;20192;-91
2022/12/01 02:16:00;;;;;;;8.67;6.43;;;7.00;99.90;;;;;;5059151;28;20178;-91
2022/12/01 02:18:37;;;;;;;14.07;8.33;;;7.10;99.90;;;;;;5058909;28;20217;-90
2022/12/01 02:21:26;;;;;;;19.27;10.70;;;7.10;99.90;;;;;;5058382;28;21030;-91
2022/12/01 02:24:25;;;;;;;13.53;7.93;;;7.10;99.90;;;;;;5060025;28;20240;-90
2022/12/01 02:26:53;;;;;;;21.17;10.97;;;7.20;99.90;;;;;;5058219;28;20324;-91
2022/12/01 02:29:42;;;;;;;12.90;10.13;;;7.10;99.90;;;;;;5059791;28;20308;-91
2022/12/01 02:32:41;;;;;;;11.70;6.53;;;7.10;99.90;;;;;;5018896;28;20222;-90
2022/12/01 02:35:15;;;;;;;6.87;6.27;;;7.10;99.90;;;;;;5058780;28;20222;-89
2022/12/01 02:37:48;;;;;;;11.03;9.80;;;7.10;99.90;;;;;;5056562;28;20221;-90
2022/12/01 02:40:24;;;;;;;23.50;11.03;;;7.10;99.90;;;;;;5049703;28;20181;-91
2022/12/01 02:43:14;;;;;;;15.43;8.63;;;7.10;99.90;;;;;;5050201;28;20634;-91
2022/12/01 02:45:58;;;;;;;17.33;8.50;;;7.20;99.90;;;;;;5050086;28;20626;-90
2022/12/01 02:48:31;;;;;;;16.77;7.73;;;7.10;99.90;;;;;;5057065;28;20275;-89
2022/12/01 02:51:05;;;;;;;11.07;7.90;;;7.10;99.90;;;;;;5050542;28;20766;-91
2022/12/01 02:53:31;;;;;;;13.20;10.10;;;7.10;99.90;;;;;;5047959;28;20770;-90
2022/12/01 02:55:58;;;;;;;14.77;8.10;;;7.10;99.90;;;;;;5048481;28;20237;-90
2022/12/01 02:58:23;;;;;;;8.50;6.73;;;7.10;99.90;;;;;;5048706;28;20194;-91
2022/12/01 03:01:17;;;;;;;11.03;8.17;;;7.00;99.90;;;;;;5059200;28;20193;-90
2022/12/01 03:03:59;;;;;;;8.97;7.80;;;6.90;99.90;;;;;;5060281;28;20644;-91
2022/12/01 03:06:40;;;;;;;7.60;6.70;;;6.90;99.90;;;;;;5058307;28;20383;-89
2022/12/01 03:09:22;;;;;;;16.07;9.50;;;6.90;99.90;;;;;;5057211;28;20229;-92
2022/12/01 03:12:12;;;;;;;17.10;10.10;;;6.90;99.90;;;;;;5050903;28;20746;-90
2022/12/01 03:15:02;;;;;;;14.37;9.97;;;6.90;99.90;;;;;;5048771;28;20218;-91
2022/12/01 03:17:46;;;;;;;16.70;7.07;;;6.90;99.90;;;;;;5054514;28;20224;-90
2022/12/01 03:20:24;;;;;;;27.70;12.23;;;6.90;99.90;;;;;;5058355;28;20239;-89
2022/12/01 03:22:57;;;;;;;13.07;9.80;;;7.00;99.90;;;;;;5057901;28;20229;-90
2022/12/01 03:25:26;;;;;;;16.47;10.57;;;7.00;99.90;;;;;;5058410;28;20665;-89
2022/12/01 03:27:55;;;;;;;11.23;7.97;;;7.10;99.90;;;;;;5057595;28;20205;-91
2022/12/01 03:30:23;;;;;;;21.67;9.73;;;7.10;99.90;;;;;;5041367;28;20251;-90
2022/12/01 03:33:03;;;;;;;32.43;10.37;;;6.90;99.90;;;;;;5040531;28;20699;-90
2022/12/01 03:35:37;;;;;;;14.60;8.43;;;6.90;99.90;;;;;;5057691;28;20682;-90
2022/12/01 03:38:26;;;;;;;11.40;7.23;;;6.80;99.90;;;;;;5057458;28;20213;-90
2022/12/01 03:40:58;;;;;;;9.43;8.00;;;6.80;99.90;;;;;;5057484;28;20260;-91
2022/12/01 03:43:37;;;;;;;18.47;9.07;;;6.80;99.90;;;;;;5058019;28;20547;-91
2022/12/01 03:46:11;;;;;;;17.73;7.17;;;6.80;99.90;;;;;;5058414;28;20185;-91
2022/12/01 03:48:39;;;;;;;12.93;7.07;;;6.80;99.90;;;;;;5058898;28;20217;-91
2022/12/01 03:51:25;;;;;;;14.97;7.80;;;6.80;99.90;;;;;;5056994;28;20332;-91
2022/12/01 03:54:07;;;;;;;15.63;8.33;;;6.90;99.90;;;;;;5056775;28;20245;-89
2022/12/01 03:56:38;;;;;;;13.67;7.53;;;6.90;99.90;;;;;;5056532;28;21049;-90
2022/12/01 03:59:06;;;;;;;13.77;8.37;;;6.90;99.90;;;;;;5056854;28;20705;-92
2022/12/01 04:01:33;;;;;;;18.07;9.40;;;6.90;99.90;;;;;;5055653;28;20217;-92
2022/12/01 04:04:08;;;;;;;14.87;8.47;;;6.80;99.90;;;;;;5055230;28;20276;-91
2022/12/01 04:06:34;;;;;;;13.87;10.37;;;6.80;99.90;;;;;;5026429;28;20279;-90
2022/12/01 04:08:59;;;;;;;18.00;7.80;;;6.80;99.90;;;;;;5027035;28;20298;-92
2022/12/01 04:14:10;;;;;;;12.60;7.20;;;6.80;99.90;;;;;;5028319;28;20222;-90
2022/12/01 04:16:35;;;;;;;9.07;6.90;;;6.80;99.90;;;;;;5010565;28;20557;-91
2022/12/01 04:19:01;;;;;;;9.97;8.83;;;6.80;99.90;;;;;;5010481;28;20651;-87
2022/12/01 04:21:27;;;;;;;15.80;8.60;;;6.90;99.90;;;;;;5045957;28;20213;-90
2022/12/01 04:23:58;;;;;;;18.53;8.93;;;6.90;99.90;;;;;;5029732;28;20217;-90
2022/12/01 04:26:24;;;;;;;11.67;8.20;;;6.90;99.90;;;;;;5046733;28;20256;-92
2022/12/01 04:28:50;;;;;;;15.10;9.33;;;6.90;99.90;;;;;;5049606;28;20331;-92
2022/12/01 04:31:15;;;;;;;15.77;9.27;;;6.90;99.90;;;;;;5039468;28;20222;-91
2022/12/01 04:33:42;;;;;;;24.10;11.57;;;6.90;99.90;;;;;;5040529;28;20553;-92
2022/12/01 04:36:08;;;;;;;15.80;7.57;;;6.90;99.90;;;;;;5056804;28;20229;-90
2022/12/01 04:38:35;;;;;;;17.27;8.63;;;7.00;99.90;;;;;;5054041;28;20232;-90
2022/12/01 04:41:08;;;;;;;13.97;10.23;;;7.00;99.90;;;;;;5055531;28;20244;-90
2022/12/01 04:43:33;;;;;;;14.13;8.30;;;7.10;99.90;;;;;;5053867;28;20221;-90
2022/12/01 04:45:59;;;;;;;10.57;6.83;;;7.10;99.90;;;;;;5044802;28;20263;-93
2022/12/01 04:48:25;;;;;;;16.30;10.50;;;7.00;99.90;;;;;;5043776;28;20698;-91
2022/12/01 04:50:50;;;;;;;12.20;10.93;;;7.00;99.90;;;;;;5009009;28;20279;-91
2022/12/01 04:53:16;;;;;;;10.23;8.77;;;7.10;99.90;;;;;;5042560;28;20234;-91
2022/12/01 04:55:42;;;;;;;21.33;12.53;;;7.10;99.90;;;;;;5042517;28;20256;-91
2022/12/01 04:58:08;;;;;;;17.70;11.13;;;7.10;99.90;;;;;;5043260;28;20549;-90
2022/12/01 05:00:33;;;;;;;15.23;12.17;;;7.20;99.90;;;;;;5057105;28;20674;-91
2022/12/01 05:03:00;;;;;;;15.77;10.03;;;7.20;99.90;;;;;;5054484;28;20574;-91
2022/12/01 05:05:25;;;;;;;18.13;10.27;;;7.20;99.90;;;;;;5056908;28;20222;-89
2022/12/01 05:07:51;;;;;;;16.53;7.57;;;7.20;99.90;;;;;;5056266;28;20224;-91
2022/12/01 05:10:17;;;;;;;12.43;9.50;;;7.10;99.90;;;;;;5038455;28;20217;-92
2022/12/01 05:12:47;;;;;;;17.83;10.63;;;7.20;99.90;;;;;;5055945;28;20197;-91
2022/12/01 05:15:13;;;;;;;19.87;12.30;;;7.20;99.90;;;;;;5056020;28;20225;-94
2022/12/01 05:17:39;;;;;;;14.17;10.77;;;7.10;99.90;;;;;;5058161;28;20259;-91
2022/12/01 05:22:51;;;;;;;10.10;9.07;;;7.10;99.90;;;;;;5058241;28;20240;-94
2022/12/01 05:25:18;;;;;;;16.67;8.23;;;7.10;99.90;;;;;;5028840;28;20281;-91
2022/12/01 05:56:51;;;;;;;14.13;8.03;;;6.60;99.90;;;;;;5073193;28;20225;-95
2022/12/01 05:59:17;;;;;;;15.10;6.30;;;6.60;99.90;;;;;;5052669;28;20212;-95
2022/12/01 06:01:43;;;;;;;11.60;8.70;;;6.60;99.90;;;;;;5030721;28;20222;-93
2022/12/01 06:04:08;;;;;;;20.27;9.37;;;6.50;99.90;;;;;;5025892;28;20194;-94
2022/12/01 06:06:34;;;;;;;10.37;6.77;;;6.50;99.90;;;;;;5045735;28;20536;-93
2022/12/01 06:09:00;;;;;;;11.90;7.67;;;6.40;99.90;;;;;;5028914;28;20209;-94
2022/12/01 06:11:26;;;;;;;9.60;6.97;;;6.40;99.90;;;;;;5025652;28;20740;-95
2022/12/01 06:13:51;;;;;;;15.27;6.80;;;6.40;99.90;;;;;;5045476;28;21156;-94
2022/12/01 06:16:17;;;;;;;8.60;7.77;;;6.40;99.90;;;;;;5046631;28;20658;-94
2022/12/01 06:18:43;;;;;;;7.73;6.70;;;6.30;99.90;;;;;;5054368;28;20181;-95
2022/12/01 06:21:09;;;;;;;10.13;7.17;;;6.30;99.90;;;;;;5063998;28;20209;-94
2022/12/01 06:23:34;;;;;;;7.00;6.33;;;6.00;99.90;;;;;;5067492;28;20267;-93
2022/12/01 06:26:00;;;;;;;9.67;6.33;;;5.80;99.90;;;;;;5026453;28;20237;-94
2022/12/01 06:28:26;;;;;;;8.23;4.67;;;5.90;99.90;;;;;;5028034;28;20541;-94
2022/12/01 06:30:52;;;;;;;6.67;6.03;;;5.90;99.90;;;;;;5046241;28;20568;-96
2022/12/01 06:33:18;;;;;;;8.40;6.43;;;5.90;99.90;;;;;;5043099;28;20209;-95
2022/12/01 06:35:43;;;;;;;7.30;6.43;;;5.90;99.90;;;;;;5042120;28;20224;-93
2022/12/01 06:38:09;;;;;;;7.37;5.23;;;5.80;99.90;;;;;;5051972;28;20209;-94
2022/12/01 06:40:43;;;;;;;7.27;5.33;;;5.80;99.90;;;;;;5068874;28;20251;-95
2022/12/01 06:43:09;;;;;;;6.47;5.87;;;5.90;99.90;;;;;;5085927;28;20268;-93
2022/12/01 06:45:41;;;;;;;7.27;5.23;;;5.90;99.90;;;;;;5065856;28;20224;-96
2022/12/01 06:48:11;;;;;;;7.83;5.97;;;5.80;99.90;;;;;;5076975;28;20254;-95
2022/12/01 06:50:37;;;;;;;3.63;2.73;;;5.80;99.90;;;;;;5068664;28;20802;-96
2022/12/01 06:53:09;;;;;;;13.73;4.53;;;5.80;99.90;;;;;;5060883;28;20330;-96
2022/12/01 06:55:44;;;;;;;7.67;3.27;;;5.80;99.90;;;;;;5083179;28;20233;-96
2022/12/01 06:58:10;;;;;;;3.03;2.70;;;5.80;99.90;;;;;;5074688;28;20518;-96
2022/12/01 07:00:39;;;;;;;4.97;4.60;;;5.90;99.90;;;;;;5078170;28;20208;-95
2022/12/01 07:03:05;;;;;;;6.87;4.63;;;6.00;99.90;;;;;;5055289;28;20320;-95
2022/12/01 07:05:31;;;;;;;4.97;4.40;;;6.00;99.90;;;;;;5071020;28;20221;-96
2022/12/01 07:08:05;;;;;;;5.20;4.77;;;6.10;99.90;;;;;;5072351;28;20291;-95
2022/12/01 07:10:31;;;;;;;4.03;2.90;;;6.10;99.90;;;;;;5073931;28;20721;-96
2022/12/01 07:12:59;;;;;;;4.50;3.30;;;6.00;99.90;;;;;;5079217;28;20196;-96
2022/12/01 07:15:27;;;;;;;5.57;2.70;;;5.90;99.90;;;;;;5076448;28;20236;-94
2022/12/01 07:17:58;;;;;;;5.03;4.33;;;5.90;99.90;;;;;;5086057;28;20232;-94
2022/12/01 07:20:27;;;;;;;5.93;3.83;;;5.90;99.90;;;;;;5082982;28;20710;-93
2022/12/01 07:23:03;;;;;;;9.80;4.97;;;6.00;99.90;;;;;;5064061;28;20230;-94
2022/12/01 07:25:29;;;;;;;4.50;2.93;;;6.10;99.90;;;;;;5073422;28;20225;-96
2022/12/01 07:27:57;;;;;;;14.13;2.67;;;6.20;99.90;;;;;;5075378;28;20201;-96
2022/12/01 07:30:23;;;;;;;5.43;4.03;;;6.30;99.90;;;;;;5073425;28;20224;-93
2022/12/01 07:32:49;;;;;;;6.73;3.97;;;6.30;99.90;;;;;;5071491;28;20304;-95
2022/12/01 07:35:15;;;;;;;9.30;5.23;;;6.30;99.90;;;;;;5065181;28;20304;-95
2022/12/01 07:37:41;;;;;;;4.47;3.23;;;6.30;99.90;;;;;;5069741;28;20224;-96
2022/12/01 07:40:08;;;;;;;15.77;3.70;;;6.20;99.90;;;;;;5054589;28;20495;-95
2022/12/01 07:42:34;;;;;;;4.10;2.80;;;6.30;99.90;;;;;;5086859;28;20243;-95
2022/12/01 07:45:01;;;;;;;5.67;5.10;;;6.40;99.90;;;;;;5079293;28;20212;-96
2022/12/01 07:47:27;;;;;;;3.07;2.87;;;6.60;99.90;;;;;;5076903;28;20225;-96
2022/12/01 07:49:55;;;;;;;10.27;6.83;;;6.70;99.90;;;;;;5066852;28;20243;-96
2022/12/01 07:52:24;;;;;;;6.50;3.47;;;7.10;99.90;;;;;;5055335;28;20193;-95
2022/12/01 07:54:50;;;;;;;4.67;4.30;;;7.40;99.90;;;;;;5055741;28;20232;-96
2022/12/01 07:57:17;;;;;;;5.60;4.67;;;7.50;99.90;;;;;;5081687;28;20248;-93
2022/12/01 07:59:42;;;;;;;14.50;4.97;;;7.60;99.90;;;;;;5068332;28;20585;-93
2022/12/01 08:02:09;;;;;;;4.47;4.07;;;7.60;99.90;;;;;;5036316;28;20314;-95
2022/12/01 08:04:39;;;;;;;9.13;3.23;;;7.70;99.90;;;;;;5067536;28;20359;-94
2022/12/01 08:07:06;;;;;;;3.33;2.33;;;7.70;99.90;;;;;;5046738;28;20270;-93
2022/12/01 08:09:32;;;;;;;4.97;4.53;;;7.70;99.90;;;;;;5045536;28;20224;-95
2022/12/01 08:11:58;;;;;;;9.47;4.50;;;7.60;99.90;;;;;;5034480;28;20221;-95
2022/12/01 08:14:29;;;;;;;9.47;4.70;;;7.50;99.90;;;;;;5061260;28;20224;-95
2022/12/01 08:17:09;;;;;;;4.40;3.67;;;7.50;99.90;;;;;;5085577;28;20217;-95
2022/12/01 08:19:36;;;;;;;11.43;5.00;;;7.60;99.90;;;;;;5080781;28;20768;-95
2022/12/01 08:22:03;;;;;;;8.93;4.77;;;7.50;99.90;;;;;;5079294;28;20173;-95
2022/12/01 08:24:33;;;;;;;3.87;3.03;;;7.50;99.90;;;;;;5089375;28;20206;-96
2022/12/01 08:27:03;;;;;;;4.27;3.30;;;7.40;99.90;;;;;;5065358;28;20472;-96
2022/12/01 08:29:45;;;;;;;5.20;4.03;;;7.40;99.90;;;;;;5056873;28;20228;-95
2022/12/01 08:32:29;;;;;;;3.43;3.17;;;7.40;99.90;;;;;;5077111;28;20242;-96
2022/12/01 08:34:55;;;;;;;5.40;4.07;;;7.50;99.90;;;;;;5053126;28;20308;-96
2022/12/01 08:37:23;;;;;;;7.50;3.47;;;7.50;99.90;;;;;;5066144;28;20231;-95
2022/12/01 08:39:52;;;;;;;6.30;4.90;;;7.50;99.90;;;;;;5067772;28;20204;-95
2022/12/01 08:42:18;;;;;;;6.67;3.57;;;7.50;99.90;;;;;;5055451;28;20327;-96
2022/12/01 08:44:48;;;;;;;9.20;4.57;;;7.50;99.90;;;;;;5076672;28;20225;-96
2022/12/01 08:47:15;;;;;;;6.47;4.30;;;7.50;99.90;;;;;;5063064;28;20220;-95
2022/12/01 08:49:44;;;;;;;4.20;3.67;;;7.70;99.90;;;;;;5063749;28;20425;-96
2022/12/01 08:52:15;;;;;;;10.83;3.43;;;7.80;99.90;;;;;;5076597;28;20189;-96
2022/12/01 08:54:44;;;;;;;3.67;3.10;;;7.90;99.90;;;;;;5069782;28;20496;-96
2022/12/01 08:57:10;;;;;;;4.93;3.10;;;8.00;99.90;;;;;;5068970;28;20225;-94
2022/12/01 08:59:36;;;;;;;6.97;5.50;;;8.30;99.90;;;;;;5049574;28;20217;-96
2022/12/01 09:02:01;;;;;;;7.13;4.27;;;8.40;99.90;;;;;;5069001;28;20217;-96
2022/12/01 09:04:28;;;;;;;5.07;4.30;;;8.40;99.90;;;;;;5059625;28;20535;-96
2022/12/01 09:06:59;;;;;;;3.33;2.87;;;8.60;99.90;;;;;;5075524;28;20192;-95
2022/12/01 09:09:27;;;;;;;4.77;2.47;;;8.70;99.90;;;;;;5066625;28;20217;-96
2022/12/01 09:11:54;;;;;;;8.90;3.03;;;8.80;99.90;;;;;;5050367;28;20276;-96
2022/12/01 09:14:21;;;;;;;4.17;3.53;;;9.00;99.90;;;;;;5073842;28;20209;-96
2022/12/01 09:16:49;;;;;;;7.20;4.80;;;9.30;99.90;;;;;;5073858;28;20205;-95
2022/12/01 09:19:17;;;;;;;2.80;2.57;;;9.30;99.90;;;;;;5069232;28;20246;-95
2022/12/01 09:21:47;;;;;;;6.07;4.47;;;9.30;99.90;;;;;;5055028;28;20185;-96
2022/12/01 09:24:20;;;;;;;7.93;3.43;;;9.10;99.90;;;;;;5088296;28;20206;-95
2022/12/01 09:27:09;;;;;;;4.47;2.43;;;9.00;99.90;;;;;;5078687;28;20227;-94
2022/12/01 09:30:01;;;;;;;4.70;2.97;;;9.00;99.90;;;;;;5060290;28;20228;-95
2022/12/01 09:33:14;;;;;;;7.67;3.50;;;9.10;99.90;;;;;;5057683;28;20311;-94
2022/12/01 09:36:40;;;;;;;3.57;2.83;;;9.00;99.90;;;;;;5081777;28;20483;-96
2022/12/01 09:40:12;;;;;;;6.03;4.60;;;8.90;99.90;;;;;;5021479;28;20207;-95
2022/12/01 09:46:44;;;;;;;;;;;;;;;;;;;;;
2022/12/01 09:54:15;;;;;;;;;;;;;;;;;;;;;
2022/12/01 09:57:40;;;;;;;4.90;3.30;;;8.70;99.90;;;;;;4984370;28;20255;-96
2022/12/01 10:00:14;;;;;;;5.43;2.53;;;8.50;99.90;;;;;;5031577;28;20225;-95
2022/12/01 10:03:25;;;;;;;5.00;2.57;;;8.50;99.90;;;;;;5048408;28;20290;-95
2022/12/01 10:06:30;;;;;;;8.43;2.97;;;8.60;99.90;;;;;;5065346;28;20256;-95
2022/12/01 10:09:45;;;;;;;4.33;3.43;;;8.60;99.90;;;;;;5075569;28;20227;-94
2022/12/01 10:12:37;;;;;;;3.70;2.93;;;8.70;99.90;;;;;;5073621;28;20225;-95
2022/12/01 10:19:16;;;;;;;3.90;2.63;;;8.70;99.90;;;;;;5061567;28;20209;-96
2022/12/01 10:33:49;;;;;;;2.97;2.33;;;8.90;99.90;;;;;;5002496;28;20225;-96
2022/12/01 10:36:20;;;;;;;2.87;2.37;;;9.10;99.90;;;;;;5023522;28;20253;-96
2022/12/01 10:39:34;;;;;;;4.03;2.27;;;9.30;99.90;;;;;;5013346;28;20658;-96
2022/12/01 10:42:45;;;;;;;1.63;1.43;;;9.50;99.90;;;;;;5005389;28;20783;-95
2022/12/01 10:45:32;;;;;;;1.60;1.23;;;9.40;99.90;;;;;;4998384;28;20222;-95
2022/12/01 10:48:24;;;;;;;2.27;2.00;;;9.40;99.90;;;;;;5027604;28;20242;-96
2022/12/01 10:51:32;;;;;;;1.83;1.47;;;9.50;99.90;;;;;;5023533;28;20260;-96
2022/12/01 10:54:41;;;;;;;3.50;2.10;;;9.60;99.90;;;;;;5048996;28;20760;-94
2022/12/01 10:57:17;;;;;;;3.77;3.47;;;9.70;99.90;;;;;;5043404;28;20237;-94
2022/12/01 11:00:07;;;;;;;3.40;2.37;;;9.80;99.90;;;;;;5059748;28;20579;-94
2022/12/01 11:02:34;;;;;;;2.10;1.90;;;9.70;99.90;;;;;;5058098;28;20229;-94
2022/12/01 11:05:06;;;;;;;1.60;1.43;;;9.50;99.90;;;;;;5072441;28;20213;-95
2022/12/01 11:07:43;;;;;;;1.97;1.87;;;9.30;99.90;;;;;;5089809;28;20293;-94
2022/12/01 11:10:14;;;;;;;1.70;1.27;;;9.20;99.90;;;;;;5046020;28;20291;-96
2022/12/01 11:12:42;;;;;;;1.90;1.77;;;9.10;99.90;;;;;;5064576;28;20182;-95
2022/12/01 11:15:23;;;;;;;2.43;1.53;;;8.90;99.90;;;;;;5065462;28;20208;-95
2022/12/01 11:17:57;;;;;;;1.33;1.17;;;8.80;99.90;;;;;;5067506;28;20205;-94
2022/12/01 11:20:33;;;;;;;1.33;1.20;;;8.70;99.90;;;;;;5068184;28;20212;-94
2022/12/01 11:23:19;;;;;;;4.33;1.80;;;8.70;99.90;;;;;;5067176;28;20233;-95
2022/12/01 11:26:03;;;;;;;1.20;1.10;;;8.80;99.90;;;;;;5071168;28;20768;-91
2022/12/01 11:28:31;;;;;;;1.93;1.67;;;8.80;99.90;;;;;;5066664;28;20225;-93
2022/12/01 11:31:07;;;;;;;2.47;2.03;;;8.90;99.90;;;;;;5073800;28;20254;-93
2022/12/01 11:36:52;;;;;;;2.23;2.03;;;8.90;99.90;;;;;;5062402;28;20253;-93
2022/12/01 11:39:32;;;;;;;3.63;1.83;;;8.90;99.90;;;;;;5046035;28;20218;-94
2022/12/01 11:42:04;;;;;;;1.07;1.00;;;9.00;99.90;;;;;;5055678;28;20228;-93
2022/12/01 11:44:33;;;;;;;7.30;2.27;;;9.00;99.90;;;;;;5064491;28;20209;-94
2022/12/01 11:47:22;;;;;;;2.37;1.30;;;9.00;99.90;;;;;;5049375;28;20209;-94
2022/12/01 11:50:00;;;;;;;2.10;1.30;;;9.10;99.90;;;;;;5081847;28;20228;-94
2022/12/01 11:52:35;;;;;;;4.30;1.20;;;9.10;99.90;;;;;;5065550;28;20181;-95
2022/12/01 11:55:10;;;;;;;1.20;1.20;;;9.30;99.90;;;;;;5065570;28;20265;-94
2022/12/01 11:57:39;;;;;;;3.17;2.87;;;9.50;99.90;;;;;;5074919;28;20248;-94
2022/12/01 12:00:15;;;;;;;3.67;1.70;;;9.50;99.90;;;;;;5042771;28;20721;-95
2022/12/01 12:03:33;;;;;;;2.50;2.00;;;9.40;99.90;;;;;;5075275;28;20739;-94
2022/12/01 12:06:16;;;;;;;4.90;1.80;;;9.00;99.90;;;;;;5073198;28;20214;-95
2022/12/01 12:08:53;;;;;;;2.47;1.77;;;8.90;99.90;;;;;;5058132;28;20293;-96
2022/12/01 12:11:44;;;;;;;3.00;1.60;;;8.90;99.90;;;;;;5052868;28;20332;-96
2022/12/01 12:14:19;;;;;;;2.60;2.40;;;9.00;99.90;;;;;;5053042;28;20240;-96
2022/12/01 12:17:49;;;;;;;1.40;1.30;;;9.10;99.90;;;;;;5062065;28;20247;-96
2022/12/01 12:20:53;;;;;;;2.33;2.00;;;9.20;99.90;;;;;;4993349;28;20222;-96
2022/12/01 12:23:23;;;;;;;2.33;2.07;;;9.00;99.90;;;;;;5000042;28;20254;-96
2022/12/01 12:26:18;;;;;;;3.80;2.70;;;9.10;99.90;;;;;;5067239;28;20241;-96
2022/12/01 12:29:20;;;;;;;3.47;1.93;;;9.20;99.90;;;;;;5062629;28;20229;-96
2022/12/01 12:31:58;;;;;;;3.53;2.30;;;9.00;99.90;;;;;;5070679;28;20253;-96
2022/12/01 12:34:36;;;;;;;3.50;2.43;;;9.00;99.90;;;;;;5080359;28;20712;-95
2022/12/01 12:37:18;;;;;;;8.70;4.23;;;9.10;99.90;;;;;;5062492;28;20185;-95
2022/12/01 12:40:05;;;;;;;6.63;1.87;;;9.00;99.90;;;;;;5043691;28;20275;-94
2022/12/01 12:42:57;;;;;;;2.87;2.23;;;9.00;99.90;;;;;;5079718;28;20247;-96
2022/12/01 12:45:29;;;;;;;3.73;2.83;;;9.00;99.90;;;;;;5048399;28;20716;-95
2022/12/01 12:48:31;;;;;;;6.07;1.93;;;8.90;99.90;;;;;;5062946;28;20220;-95
2022/12/01 12:51:21;;;;;;;4.03;3.03;;;9.00;99.90;;;;;;5071325;28;20217;-96
2022/12/01 12:53:52;;;;;;;3.67;2.13;;;9.00;99.90;;;;;;5075258;28;20687;-95
2022/12/01 12:56:22;;;;;;;3.13;2.57;;;9.10;99.90;;;;;;5068457;28;20227;-95
2022/12/01 12:58:59;;;;;;;3.60;1.87;;;8.90;99.90;;;;;;5084032;28;20708;-96
2022/12/01 13:01:35;;;;;;;2.23;2.13;;;8.90;99.90;;;;;;5077392;28;20207;-96
2022/12/01 13:04:09;;;;;;;4.27;2.37;;;8.80;99.90;;;;;;5069542;28;20165;-96
2022/12/01 13:06:40;;;;;;;1.50;1.30;;;8.80;99.90;;;;;;5069662;28;20201;-95
2022/12/01 13:09:28;;;;;;;3.53;2.10;;;8.80;99.90;;;;;;5072501;28;20299;-95
2022/12/01 13:12:14;;;;;;;3.60;2.37;;;8.80;99.90;;;;;;5093892;28;20240;-96
2022/12/01 13:14:43;;;;;;;1.37;1.20;;;8.70;99.90;;;;;;5072654;28;20211;-95
2022/12/01 13:17:29;;;;;;;5.50;3.40;;;8.50;99.90;;;;;;5079647;28;20656;-93
2022/12/01 13:19:55;;;;;;;2.37;1.53;;;8.70;99.90;;;;;;5083301;28;20255;-96
2022/12/01 13:22:31;;;;;;;4.40;2.70;;;8.60;99.90;;;;;;5049297;28;20658;-96
2022/12/01 13:24:57;;;;;;;3.37;2.43;;;8.60;99.90;;;;;;5076814;28;20180;-96
2022/12/01 13:27:25;;;;;;;3.43;1.93;;;8.60;99.90;;;;;;5038980;28;20308;-94
2022/12/01 13:29:54;;;;;;;2.40;2.10;;;8.60;99.90;;;;;;5072590;28;20350;-95
2022/12/01 13:32:25;;;;;;;3.77;2.13;;;8.60;99.90;;;;;;5073593;28;20209;-95
2022/12/01 13:34:50;;;;;;;3.40;2.87;;;8.50;99.90;;;;;;5073339;28;20212;-94
2022/12/01 13:37:27;;;;;;;5.93;3.10;;;8.40;99.90;;;;;;5054451;28;20196;-94
2022/12/01 13:39:55;;;;;;;1.47;1.30;;;8.40;99.90;;;;;;5063720;28;20207;-95
2022/12/01 13:42:23;;;;;;;2.87;2.67;;;8.40;99.90;;;;;;5072265;28;20213;-94
2022/12/01 13:45:16;;;;;;;3.93;1.87;;;8.40;99.90;;;;;;5070155;28;20236;-94
2022/12/01 13:47:54;;;;;;;4.77;1.87;;;8.20;99.90;;;;;;5074106;28;20237;-95
2022/12/01 13:50:52;;;;;;;3.37;2.93;;;8.30;99.90;;;;;;5093451;28;20224;-95
2022/12/01 13:53:18;;;;;;;3.90;2.67;;;8.40;99.90;;;;;;5076534;28;20217;-94
2022/12/01 13:56:16;;;;;;;5.93;3.60;;;8.30;99.90;;;;;;5074408;28;20298;-94
2022/12/01 13:58:44;;;;;;;2.77;2.47;;;8.20;99.90;;;;;;5068713;28;20243;-94
2022/12/01 14:01:41;;;;;;;5.57;2.40;;;8.10;99.90;;;;;;5059538;28;20209;-93
2022/12/01 14:04:10;;;;;;;4.70;2.60;;;8.10;99.90;;;;;;5065043;28;20291;-95
2022/12/01 14:06:47;;;;;;;3.27;2.60;;;8.10;99.90;;;;;;5062901;28;20225;-95
2022/12/01 14:09:37;;;;;;;3.17;2.30;;;8.10;99.90;;;;;;5046514;28;20213;-95
2022/12/01 14:12:24;;;;;;;3.33;2.57;;;8.00;99.90;;;;;;5045234;28;20288;-94
2022/12/01 14:14:57;;;;;;;4.57;3.07;;;8.10;99.90;;;;;;5071895;28;20614;-95
2022/12/01 14:17:31;;;;;;;3.80;2.97;;;8.00;99.90;;;;;;5073230;28;20213;-95
2022/12/01 14:20:26;;;;;;;3.30;2.10;;;8.00;99.90;;;;;;5070772;28;20755;-94
2022/12/01 14:23:17;;;;;;;3.13;2.20;;;8.00;99.90;;;;;;5069880;28;20258;-96
2022/12/01 14:26:14;;;;;;;3.17;2.87;;;7.80;99.90;;;;;;5056004;28;20258;-93
2022/12/01 14:29:01;;;;;;;3.17;2.83;;;7.80;99.90;;;;;;5069429;28;20345;-95
2022/12/01 14:31:33;;;;;;;3.93;3.63;;;7.80;99.90;;;;;;5069144;28;20296;-94
2022/12/01 14:34:14;;;;;;;2.73;2.53;;;7.70;99.90;;;;;;5080638;28;20242;-96
2022/12/01 14:36:49;;;;;;;3.57;2.20;;;7.70;99.90;;;;;;5095034;28;20209;-95